createdAt,value
2018-08-09T00:00:01.352Z,15.07
2018-08-09T00:00:32.508Z,15.23
2018-08-09T00:01:03.639Z,14.67
2018-08-09T00:01:34.771Z,16.07
2018-08-09T00:02:05.966Z,15.73
2018-08-09T00:02:37.157Z,15.20
2018-08-09T00:03:08.334Z,15.77
2018-08-09T00:03:39.555Z,16.00
2018-08-09T00:04:10.714Z,16.60
2018-08-09T00:04:41.897Z,15.80
2018-08-09T00:05:13.048Z,14.73
2018-08-09T00:05:44.243Z,15.90
2018-08-09T00:06:15.379Z,15.20
2018-08-09T00:06:46.556Z,15.63
2018-08-09T00:07:17.720Z,15.30
2018-08-09T00:07:48.910Z,16.07
2018-08-09T00:08:20.046Z,16.43
2018-08-09T00:08:51.278Z,16.40
2018-08-09T00:09:22.515Z,15.93
2018-08-09T00:09:53.711Z,16.07
2018-08-09T00:10:24.903Z,15.77
2018-08-09T00:10:56.079Z,15.87
2018-08-09T00:11:27.279Z,16.60
2018-08-09T00:11:58.404Z,15.70
2018-08-09T00:12:29.639Z,15.53
2018-08-09T00:13:00.834Z,15.80
2018-08-09T00:13:31.946Z,15.77
2018-08-09T00:14:03.119Z,16.00
2018-08-09T00:14:34.255Z,16.20
2018-08-09T00:15:05.379Z,15.90
2018-08-09T00:15:36.492Z,16.10
2018-08-09T00:16:07.668Z,16.40
2018-08-09T00:16:38.854Z,16.03
2018-08-09T00:17:10.001Z,15.93
2018-08-09T00:17:41.165Z,16.03
2018-08-09T00:18:12.426Z,15.73
2018-08-09T00:18:43.579Z,16.10
2018-08-09T00:19:14.695Z,15.47
2018-08-09T00:19:45.868Z,15.73
2018-08-09T00:20:17.040Z,15.67
2018-08-09T00:20:48.249Z,14.83
2018-08-09T00:21:19.387Z,14.80
2018-08-09T00:21:50.559Z,15.53
2018-08-09T00:22:21.808Z,15.47
2018-08-09T00:22:52.941Z,15.47
2018-08-09T00:23:24.136Z,15.33
2018-08-09T00:23:55.364Z,15.40
2018-08-09T00:24:26.469Z,15.00
2018-08-09T00:24:57.639Z,15.23
2018-08-09T00:25:28.820Z,16.03
2018-08-09T00:26:00.064Z,16.13
2018-08-09T00:26:31.198Z,15.37
2018-08-09T00:27:02.374Z,15.83
2018-08-09T00:27:33.505Z,16.23
2018-08-09T00:28:04.717Z,15.97
2018-08-09T00:28:35.843Z,16.50
2018-08-09T00:29:07.012Z,15.00
2018-08-09T00:29:38.145Z,14.10
2018-08-09T00:30:09.325Z,14.73
2018-08-09T00:30:40.507Z,14.23
2018-08-09T00:31:11.775Z,15.47
2018-08-09T00:31:43.007Z,14.83
2018-08-09T00:32:14.197Z,15.73
2018-08-09T00:32:45.384Z,16.40
2018-08-09T00:33:16.557Z,15.97
2018-08-09T00:33:47.677Z,14.87
2018-08-09T00:34:18.857Z,15.57
2018-08-09T00:34:50.099Z,15.57
2018-08-09T00:35:21.338Z,16.00
2018-08-09T00:35:52.576Z,15.33
2018-08-09T00:36:23.716Z,15.73
2018-08-09T00:36:54.846Z,15.17
2018-08-09T00:37:25.966Z,16.60
2018-08-09T00:37:57.088Z,15.07
2018-08-09T00:38:28.208Z,15.50
2018-08-09T00:38:59.335Z,15.83
2018-08-09T00:39:30.499Z,14.77
2018-08-09T00:40:01.617Z,14.90
2018-08-09T00:40:32.792Z,14.97
2018-08-09T00:41:03.927Z,14.87
2018-08-09T00:41:35.052Z,14.83
2018-08-09T00:42:06.294Z,15.03
2018-08-09T00:42:37.587Z,13.83
2018-08-09T00:43:08.768Z,14.53
2018-08-09T00:43:39.909Z,13.17
2018-08-09T00:44:11.118Z,13.97
2018-08-09T00:44:42.354Z,13.97
2018-08-09T00:45:13.537Z,14.13
2018-08-09T00:45:44.676Z,14.30
2018-08-09T00:46:15.870Z,14.13
2018-08-09T00:46:47.062Z,13.83
2018-08-09T00:47:18.187Z,14.27
2018-08-09T00:47:49.373Z,13.30
2018-08-09T00:48:20.554Z,13.47
2018-08-09T00:48:51.731Z,12.70
2018-08-09T00:49:22.994Z,12.83
2018-08-09T00:49:54.228Z,12.40
2018-08-09T00:50:25.416Z,12.67
2018-08-09T00:50:56.605Z,13.20
2018-08-09T00:51:27.729Z,13.47
2018-08-09T00:51:58.906Z,13.17
2018-08-09T00:52:30.068Z,14.57
2018-08-09T00:53:01.237Z,13.17
2018-08-09T00:53:32.477Z,13.17
2018-08-09T00:54:03.612Z,13.77
2018-08-09T00:54:34.739Z,13.83
2018-08-09T00:55:06.035Z,13.30
2018-08-09T00:55:37.185Z,13.93
2018-08-09T00:56:08.394Z,13.60
2018-08-09T00:56:39.578Z,14.37
2018-08-09T00:57:10.708Z,13.67
2018-08-09T00:57:41.859Z,13.80
2018-08-09T00:58:13.082Z,14.53
2018-08-09T00:58:44.333Z,13.60
2018-08-09T00:59:15.622Z,14.90
2018-08-09T00:59:46.820Z,15.07
2018-08-09T01:00:17.998Z,14.93
2018-08-09T01:00:49.132Z,14.70
2018-08-09T01:01:20.313Z,16.23
2018-08-09T01:01:51.484Z,15.30
2018-08-09T01:02:22.664Z,15.10
2018-08-09T01:02:53.839Z,15.07
2018-08-09T01:03:25.051Z,14.97
2018-08-09T01:03:56.233Z,15.23
2018-08-09T01:04:27.382Z,14.70
2018-08-09T01:04:58.519Z,13.73
2018-08-09T01:05:29.655Z,15.00
2018-08-09T01:06:00.821Z,14.57
2018-08-09T01:06:31.966Z,15.20
2018-08-09T01:07:03.136Z,15.57
2018-08-09T01:07:34.269Z,14.33
2018-08-09T01:08:05.439Z,15.17
2018-08-09T01:08:36.568Z,14.43
2018-08-09T01:09:07.755Z,14.33
2018-08-09T01:09:38.931Z,13.83
2018-08-09T01:10:10.091Z,13.40
2018-08-09T01:10:41.272Z,13.00
2018-08-09T01:11:12.448Z,13.60
2018-08-09T01:11:43.631Z,13.30
2018-08-09T01:12:14.772Z,13.63
2018-08-09T01:12:45.919Z,13.40
2018-08-09T01:13:17.089Z,12.80
2018-08-09T01:13:48.271Z,13.80
2018-08-09T01:14:19.453Z,12.13
2018-08-09T01:14:50.671Z,11.47
2018-08-09T01:15:21.870Z,11.83
2018-08-09T01:15:53.004Z,13.07
2018-08-09T01:16:24.184Z,11.73
2018-08-09T01:16:55.366Z,13.23
2018-08-09T01:17:26.592Z,12.47
2018-08-09T01:17:57.766Z,12.93
2018-08-09T01:18:28.999Z,13.80
2018-08-09T01:19:00.176Z,12.83
2018-08-09T01:19:31.310Z,12.77
2018-08-09T01:20:02.486Z,13.03
2018-08-09T01:20:33.630Z,13.77
2018-08-09T01:21:04.777Z,12.07
2018-08-09T01:21:36.061Z,13.00
2018-08-09T01:22:07.220Z,12.07
2018-08-09T01:22:38.452Z,11.83
2018-08-09T01:23:09.622Z,10.43
2018-08-09T01:23:40.766Z,12.27
2018-08-09T01:24:12.002Z,12.33
2018-08-09T01:24:43.136Z,13.03
2018-08-09T01:25:14.319Z,12.50
2018-08-09T01:25:45.440Z,12.60
2018-08-09T01:26:16.569Z,12.30
2018-08-09T01:26:47.683Z,12.57
2018-08-09T01:27:18.811Z,12.33
2018-08-09T01:27:50.089Z,12.47
2018-08-09T01:28:21.282Z,12.10
2018-08-09T01:28:52.432Z,11.63
2018-08-09T01:29:23.554Z,11.17
2018-08-09T01:29:54.833Z,11.73
2018-08-09T01:30:26.046Z,12.80
2018-08-09T01:30:57.237Z,12.90
2018-08-09T01:31:28.364Z,12.70
2018-08-09T01:32:00.337Z,13.23
2018-08-09T01:32:31.497Z,12.77
2018-08-09T01:33:02.687Z,13.27
2018-08-09T01:33:33.868Z,12.60
2018-08-09T01:34:05.079Z,13.37
2018-08-09T01:34:36.258Z,13.20
2018-08-09T01:35:07.440Z,13.40
2018-08-09T01:35:38.622Z,13.50
2018-08-09T01:36:09.815Z,14.20
2018-08-09T01:36:41.024Z,13.70
2018-08-09T01:37:12.265Z,13.93
2018-08-09T01:37:43.460Z,14.10
2018-08-09T01:38:14.654Z,14.67
2018-08-09T01:38:45.785Z,15.13
2018-08-09T01:39:16.942Z,15.33
2018-08-09T01:39:48.121Z,15.00
2018-08-09T01:40:19.237Z,14.87
2018-08-09T01:40:50.458Z,15.93
2018-08-09T01:41:21.640Z,14.83
2018-08-09T01:41:52.898Z,15.23
2018-08-09T01:42:24.028Z,15.57
2018-08-09T01:42:55.205Z,15.77
2018-08-09T01:43:26.379Z,16.13
2018-08-09T01:43:57.511Z,16.77
2018-08-09T01:44:28.775Z,16.03
2018-08-09T01:44:59.900Z,15.13
2018-08-09T01:45:31.031Z,15.50
2018-08-09T01:46:02.261Z,16.03
2018-08-09T01:46:33.432Z,15.60
2018-08-09T01:47:04.545Z,15.70
2018-08-09T01:47:35.736Z,15.47
2018-08-09T01:48:06.912Z,15.80
2018-08-09T01:48:38.053Z,16.10
2018-08-09T01:49:09.225Z,14.73
2018-08-09T01:49:41.398Z,16.13
2018-08-09T01:50:12.581Z,15.23
2018-08-09T01:50:43.712Z,15.43
2018-08-09T01:51:14.937Z,14.80
2018-08-09T01:51:46.129Z,15.13
2018-08-09T01:52:17.312Z,15.17
2018-08-09T01:52:48.502Z,15.80
2018-08-09T01:53:19.697Z,15.43
2018-08-09T01:53:50.822Z,14.60
2018-08-09T01:54:21.942Z,14.77
2018-08-09T01:54:53.113Z,14.27
2018-08-09T01:55:24.350Z,14.37
2018-08-09T01:55:55.479Z,15.00
2018-08-09T01:56:26.723Z,16.60
2018-08-09T01:56:57.975Z,15.33
2018-08-09T01:57:29.123Z,15.40
2018-08-09T01:58:00.307Z,15.30
2018-08-09T01:58:31.473Z,15.60
2018-08-09T01:59:02.649Z,15.20
2018-08-09T01:59:33.901Z,15.73
2018-08-09T02:00:05.093Z,15.07
2018-08-09T02:00:36.344Z,15.27
2018-08-09T02:01:07.524Z,15.97
2018-08-09T02:01:38.647Z,16.23
2018-08-09T02:02:09.816Z,15.83
2018-08-09T02:02:40.984Z,16.13
2018-08-09T02:03:12.151Z,15.90
2018-08-09T02:03:43.282Z,16.27
2018-08-09T02:04:14.493Z,15.87
2018-08-09T02:04:45.784Z,15.50
2018-08-09T02:05:16.982Z,16.17
2018-08-09T02:05:48.158Z,16.40
2018-08-09T02:06:19.300Z,16.23
2018-08-09T02:06:50.439Z,15.63
2018-08-09T02:07:21.681Z,16.07
2018-08-09T02:07:52.881Z,15.37
2018-08-09T02:08:23.997Z,15.80
2018-08-09T02:08:55.208Z,16.63
2018-08-09T02:09:26.332Z,15.83
2018-08-09T02:09:57.508Z,17.37
2018-08-09T02:10:28.712Z,15.67
2018-08-09T02:10:59.831Z,16.53
2018-08-09T02:11:30.953Z,16.17
2018-08-09T02:12:02.145Z,15.67
2018-08-09T02:12:33.257Z,15.20
2018-08-09T02:13:04.450Z,15.33
2018-08-09T02:13:35.730Z,16.27
2018-08-09T02:14:06.961Z,15.47
2018-08-09T02:14:38.093Z,14.70
2018-08-09T02:15:09.237Z,15.43
2018-08-09T02:15:40.357Z,15.17
2018-08-09T02:16:11.476Z,15.87
2018-08-09T02:16:42.596Z,15.33
2018-08-09T02:17:13.778Z,15.33
2018-08-09T02:17:44.898Z,16.50
2018-08-09T02:18:16.086Z,15.00
2018-08-09T02:18:47.212Z,15.50
2018-08-09T02:19:18.432Z,16.60
2018-08-09T02:19:49.614Z,16.20
2018-08-09T02:20:20.810Z,16.50
2018-08-09T02:20:51.936Z,16.50
2018-08-09T02:21:24.022Z,16.00
2018-08-09T02:21:55.155Z,16.00
2018-08-09T02:22:26.281Z,16.00
2018-08-09T02:22:57.461Z,16.17
2018-08-09T02:23:28.755Z,15.80
2018-08-09T02:24:00.010Z,16.20
2018-08-09T02:24:31.177Z,16.97
2018-08-09T02:25:02.965Z,16.77
2018-08-09T02:25:34.104Z,16.87
2018-08-09T02:26:05.276Z,16.53
2018-08-09T02:26:36.517Z,15.77
2018-08-09T02:27:07.664Z,16.87
2018-08-09T02:27:38.788Z,15.87
2018-08-09T02:28:09.904Z,16.97
2018-08-09T02:28:41.083Z,17.00
2018-08-09T02:29:12.273Z,17.13
2018-08-09T02:29:43.453Z,16.40
2018-08-09T02:30:14.634Z,16.40
2018-08-09T02:30:45.806Z,15.57
2018-08-09T02:31:16.990Z,16.50
2018-08-09T02:31:48.125Z,17.00
2018-08-09T02:32:19.265Z,16.47
2018-08-09T02:32:50.438Z,15.77
2018-08-09T02:33:21.627Z,16.03
2018-08-09T02:33:52.830Z,16.50
2018-08-09T02:34:24.006Z,16.27
2018-08-09T02:34:55.127Z,15.50
2018-08-09T02:35:26.285Z,16.70
2018-08-09T02:35:57.470Z,15.80
2018-08-09T02:36:28.667Z,17.37
2018-08-09T02:36:59.868Z,16.63
2018-08-09T02:37:30.995Z,15.87
2018-08-09T02:38:02.107Z,16.13
2018-08-09T02:38:33.252Z,15.97
2018-08-09T02:39:04.434Z,15.77
2018-08-09T02:39:35.650Z,15.60
2018-08-09T02:40:06.782Z,16.80
2018-08-09T02:40:37.926Z,16.87
2018-08-09T02:41:09.131Z,16.17
2018-08-09T02:41:40.493Z,17.23
2018-08-09T02:42:11.674Z,17.33
2018-08-09T02:42:42.878Z,16.90
2018-08-09T02:43:14.068Z,17.20
2018-08-09T02:43:45.215Z,15.53
2018-08-09T02:44:16.401Z,15.80
2018-08-09T02:44:47.528Z,15.27
2018-08-09T02:45:18.652Z,16.93
2018-08-09T02:45:49.844Z,17.20
2018-08-09T02:46:21.013Z,16.60
2018-08-09T02:46:52.274Z,16.40
2018-08-09T02:47:23.457Z,16.30
2018-08-09T02:47:54.628Z,16.70
2018-08-09T02:48:25.813Z,16.53
2018-08-09T02:48:57.024Z,16.10
2018-08-09T02:49:28.147Z,17.10
2018-08-09T02:49:59.318Z,16.60
2018-08-09T02:50:30.443Z,16.10
2018-08-09T02:51:01.561Z,17.17
2018-08-09T02:51:32.849Z,17.33
2018-08-09T02:52:04.101Z,17.67
2018-08-09T02:52:35.271Z,17.13
2018-08-09T02:53:06.446Z,16.87
2018-08-09T02:53:37.572Z,17.77
2018-08-09T02:54:08.679Z,17.17
2018-08-09T02:54:39.857Z,17.93
2018-08-09T02:55:11.113Z,17.47
2018-08-09T02:55:42.289Z,17.33
2018-08-09T02:56:13.536Z,16.47
2018-08-09T02:56:44.674Z,16.67
2018-08-09T02:57:15.865Z,17.20
2018-08-09T02:57:47.168Z,17.60
2018-08-09T02:58:18.433Z,18.00
2018-08-09T02:58:49.682Z,17.93
2018-08-09T02:59:20.816Z,17.50
2018-08-09T02:59:51.943Z,17.40
2018-08-09T03:00:23.178Z,17.70
2018-08-09T03:00:54.389Z,17.57
2018-08-09T03:01:25.571Z,17.50
2018-08-09T03:01:56.710Z,17.67
2018-08-09T03:02:27.970Z,16.07
2018-08-09T03:02:59.172Z,17.67
2018-08-09T03:03:30.357Z,16.77
2018-08-09T03:04:01.525Z,17.87
2018-08-09T03:04:32.663Z,17.03
2018-08-09T03:05:03.849Z,17.97
2018-08-09T03:05:35.025Z,17.37
2018-08-09T03:06:06.181Z,17.10
2018-08-09T03:06:37.359Z,17.63
2018-08-09T03:07:08.493Z,17.20
2018-08-09T03:07:39.671Z,17.20
2018-08-09T03:08:10.832Z,17.00
2018-08-09T03:08:42.010Z,16.53
2018-08-09T03:09:13.197Z,16.37
2018-08-09T03:09:44.324Z,17.37
2018-08-09T03:10:15.452Z,16.70
2018-08-09T03:10:46.642Z,18.97
2018-08-09T03:11:17.835Z,19.33
2018-08-09T03:11:48.947Z,19.63
2018-08-09T03:12:20.076Z,19.33
2018-08-09T03:12:51.207Z,19.83
2018-08-09T03:13:22.379Z,19.90
2018-08-09T03:13:53.570Z,19.83
2018-08-09T03:14:24.804Z,20.47
2018-08-09T03:14:56.054Z,20.53
2018-08-09T03:15:27.225Z,20.00
2018-08-09T03:15:58.433Z,19.77
2018-08-09T03:16:29.668Z,18.17
2018-08-09T03:17:00.796Z,17.70
2018-08-09T03:17:32.020Z,18.33
2018-08-09T03:18:03.207Z,18.23
2018-08-09T03:18:34.385Z,18.70
2018-08-09T03:19:05.532Z,18.03
2018-08-09T03:19:36.647Z,18.13
2018-08-09T03:20:07.825Z,18.73
2018-08-09T03:20:39.025Z,18.60
2018-08-09T03:21:10.162Z,18.83
2018-08-09T03:21:41.339Z,17.67
2018-08-09T03:22:12.486Z,19.07
2018-08-09T03:22:43.671Z,17.90
2018-08-09T03:23:14.851Z,18.87
2018-08-09T03:23:46.024Z,19.03
2018-08-09T03:24:17.269Z,18.87
2018-08-09T03:24:48.446Z,18.80
2018-08-09T03:25:19.564Z,19.43
2018-08-09T03:25:50.794Z,18.50
2018-08-09T03:26:21.981Z,18.77
2018-08-09T03:26:53.169Z,19.70
2018-08-09T03:27:24.296Z,19.97
2018-08-09T03:27:55.468Z,19.27
2018-08-09T03:28:26.710Z,18.63
2018-08-09T03:28:57.841Z,18.80
2018-08-09T03:29:29.066Z,19.13
2018-08-09T03:30:00.261Z,20.10
2018-08-09T03:30:31.390Z,21.87
2018-08-09T03:31:02.564Z,20.73
2018-08-09T03:31:33.700Z,20.07
2018-08-09T03:32:04.884Z,21.07
2018-08-09T03:32:36.026Z,21.30
2018-08-09T03:33:07.143Z,20.80
2018-08-09T03:33:38.268Z,21.43
2018-08-09T03:34:09.446Z,21.00
2018-08-09T03:34:40.650Z,20.90
2018-08-09T03:35:11.780Z,20.97
2018-08-09T03:35:42.951Z,20.63
2018-08-09T03:36:14.133Z,21.43
2018-08-09T03:36:45.319Z,21.90
2018-08-09T03:37:16.493Z,20.90
2018-08-09T03:37:47.670Z,21.93
2018-08-09T03:38:18.884Z,21.57
2018-08-09T03:38:50.011Z,22.00
2018-08-09T03:39:21.142Z,21.10
2018-08-09T03:39:52.268Z,20.33
2018-08-09T03:40:23.452Z,21.97
2018-08-09T03:40:54.720Z,21.97
2018-08-09T03:41:25.854Z,21.77
2018-08-09T03:41:57.048Z,21.43
2018-08-09T03:42:28.247Z,22.60
2018-08-09T03:42:59.441Z,22.20
2018-08-09T03:43:30.566Z,20.60
2018-08-09T03:44:01.692Z,22.17
2018-08-09T03:44:32.900Z,21.80
2018-08-09T03:45:04.042Z,21.87
2018-08-09T03:45:35.169Z,22.10
2018-08-09T03:46:06.369Z,22.03
2018-08-09T03:46:37.543Z,21.53
2018-08-09T03:47:08.679Z,22.70
2018-08-09T03:47:39.850Z,22.87
2018-08-09T03:48:11.045Z,21.50
2018-08-09T03:48:42.234Z,21.97
2018-08-09T03:49:13.408Z,22.13
2018-08-09T03:49:44.574Z,22.53
2018-08-09T03:50:15.807Z,22.33
2018-08-09T03:50:46.985Z,22.47
2018-08-09T03:51:18.164Z,23.43
2018-08-09T03:51:49.399Z,23.33
2018-08-09T03:52:20.632Z,22.40
2018-08-09T03:52:51.824Z,23.90
2018-08-09T03:53:23.043Z,22.87
2018-08-09T03:53:54.215Z,23.77
2018-08-09T03:54:25.447Z,24.10
2018-08-09T03:54:56.666Z,22.47
2018-08-09T03:55:27.902Z,22.17
2018-08-09T03:55:59.026Z,22.80
2018-08-09T03:56:30.207Z,21.97
2018-08-09T03:57:01.344Z,23.30
2018-08-09T03:57:32.520Z,23.70
2018-08-09T03:58:03.701Z,24.43
2018-08-09T03:58:34.929Z,23.97
2018-08-09T03:59:06.064Z,25.10
2018-08-09T03:59:37.334Z,24.47
2018-08-09T04:00:08.532Z,24.53
2018-08-09T04:00:39.661Z,24.87
2018-08-09T04:01:10.853Z,26.67
2018-08-09T04:01:42.029Z,25.30
2018-08-09T04:02:13.203Z,26.00
2018-08-09T04:02:44.384Z,26.10
2018-08-09T04:03:15.591Z,30.60
2018-08-09T04:03:46.827Z,27.87
2018-08-09T04:04:17.953Z,26.63
2018-08-09T04:04:49.170Z,26.87
2018-08-09T04:05:20.347Z,26.47
2018-08-09T04:05:51.585Z,24.47
2018-08-09T04:06:22.773Z,25.23
2018-08-09T04:06:53.957Z,25.70
2018-08-09T04:07:25.148Z,25.30
2018-08-09T04:07:56.371Z,25.10
2018-08-09T04:08:27.556Z,25.37
2018-08-09T04:08:58.771Z,24.47
2018-08-09T04:09:30.020Z,23.83
2018-08-09T04:10:01.188Z,24.07
2018-08-09T04:10:32.354Z,21.97
2018-08-09T04:11:03.488Z,28.40
2018-08-09T04:11:34.717Z,24.57
2018-08-09T04:12:05.988Z,22.57
2018-08-09T04:12:37.117Z,21.67
2018-08-09T04:13:08.298Z,20.60
2018-08-09T04:13:39.423Z,20.53
2018-08-09T04:14:10.634Z,21.03
2018-08-09T04:14:41.760Z,20.73
2018-08-09T04:15:12.910Z,20.20
2018-08-09T04:15:44.073Z,19.47
2018-08-09T04:16:15.258Z,19.50
2018-08-09T04:16:46.445Z,19.10
2018-08-09T04:17:17.634Z,20.50
2018-08-09T04:17:48.763Z,19.10
2018-08-09T04:18:20.011Z,19.23
2018-08-09T04:18:51.197Z,19.07
2018-08-09T04:19:22.396Z,18.93
2018-08-09T04:19:53.632Z,19.83
2018-08-09T04:20:24.851Z,18.67
2018-08-09T04:20:56.080Z,18.67
2018-08-09T04:21:27.243Z,17.83
2018-08-09T04:21:58.456Z,18.43
2018-08-09T04:22:29.656Z,18.90
2018-08-09T04:23:00.859Z,19.23
2018-08-09T04:23:31.991Z,19.23
2018-08-09T04:24:03.200Z,18.50
2018-08-09T04:24:34.339Z,18.67
2018-08-09T04:25:05.533Z,18.00
2018-08-09T04:25:36.663Z,17.93
2018-08-09T04:26:07.796Z,17.97
2018-08-09T04:26:38.963Z,17.60
2018-08-09T04:27:10.137Z,17.60
2018-08-09T04:27:41.309Z,17.73
2018-08-09T04:28:12.437Z,17.50
2018-08-09T04:28:43.558Z,17.67
2018-08-09T04:29:14.733Z,17.00
2018-08-09T04:29:45.906Z,17.77
2018-08-09T04:30:17.087Z,16.23
2018-08-09T04:30:48.259Z,16.00
2018-08-09T04:31:19.467Z,16.60
2018-08-09T04:31:50.589Z,15.83
2018-08-09T04:32:21.736Z,16.07
2018-08-09T04:32:52.970Z,15.33
2018-08-09T04:33:24.100Z,15.83
2018-08-09T04:33:55.223Z,16.17
2018-08-09T04:34:26.408Z,16.27
2018-08-09T04:34:57.692Z,14.90
2018-08-09T04:35:28.919Z,14.10
2018-08-09T04:36:00.056Z,14.67
2018-08-09T04:36:31.236Z,15.17
2018-08-09T04:37:02.366Z,15.27
2018-08-09T04:37:33.502Z,15.23
2018-08-09T04:38:04.698Z,13.93
2018-08-09T04:38:35.984Z,14.83
2018-08-09T04:39:07.133Z,15.03
2018-08-09T04:39:38.388Z,14.13
2018-08-09T04:40:09.532Z,14.10
2018-08-09T04:40:40.768Z,13.40
2018-08-09T04:41:11.956Z,14.53
2018-08-09T04:41:43.148Z,14.23
2018-08-09T04:42:14.288Z,13.97
2018-08-09T04:42:45.495Z,13.70
2018-08-09T04:43:16.635Z,14.47
2018-08-09T04:43:47.889Z,14.57
2018-08-09T04:44:19.024Z,13.80
2018-08-09T04:44:50.174Z,13.10
2018-08-09T04:45:21.424Z,13.50
2018-08-09T04:45:52.575Z,14.00
2018-08-09T04:46:23.704Z,14.43
2018-08-09T04:46:54.948Z,13.70
2018-08-09T04:47:26.201Z,13.50
2018-08-09T04:47:57.372Z,14.37
2018-08-09T04:48:28.552Z,13.47
2018-08-09T04:48:59.739Z,13.17
2018-08-09T04:49:30.857Z,14.30
2018-08-09T04:50:02.032Z,13.23
2018-08-09T04:50:33.209Z,14.10
2018-08-09T04:51:04.340Z,16.43
2018-08-09T04:51:35.511Z,13.93
2018-08-09T04:52:06.703Z,13.67
2018-08-09T04:52:38.102Z,12.90
2018-08-09T04:53:09.232Z,13.07
2018-08-09T04:53:40.415Z,13.38
2018-08-09T04:54:11.604Z,13.45
2018-08-09T04:54:42.730Z,13.32
2018-08-09T04:55:13.850Z,13.50
2018-08-09T04:55:45.038Z,12.85
2018-08-09T04:56:16.169Z,13.30
2018-08-09T04:56:47.392Z,14.65
2018-08-09T04:57:18.635Z,15.55
2018-08-09T04:57:49.768Z,14.85
2018-08-09T04:58:20.960Z,13.93
2018-08-09T04:58:52.089Z,13.98
2018-08-09T04:59:23.284Z,14.43
2018-08-09T04:59:54.573Z,14.10
2018-08-09T05:00:25.804Z,15.03
2018-08-09T05:00:57.001Z,15.20
2018-08-09T05:01:28.124Z,15.05
2018-08-09T05:01:59.254Z,13.83
2018-08-09T05:02:30.438Z,14.30
2018-08-09T05:03:01.637Z,15.03
2018-08-09T05:03:32.827Z,14.83
2018-08-09T05:04:04.060Z,14.38
2018-08-09T05:04:35.203Z,14.35
2018-08-09T05:05:06.381Z,14.83
2018-08-09T05:05:37.572Z,14.38
2018-08-09T05:06:08.763Z,15.10
2018-08-09T05:06:39.937Z,15.80
2018-08-09T05:07:11.132Z,15.28
2018-08-09T05:07:42.330Z,14.35
2018-08-09T05:08:13.465Z,15.80
2018-08-09T05:08:44.596Z,14.97
2018-08-09T05:09:15.713Z,16.10
2018-08-09T05:09:46.836Z,16.40
2018-08-09T05:10:18.440Z,15.90
2018-08-09T05:10:49.595Z,15.27
2018-08-09T05:11:20.766Z,15.60
2018-08-09T05:11:51.935Z,16.30
2018-08-09T05:12:23.059Z,15.97
2018-08-09T05:12:54.241Z,15.63
2018-08-09T05:13:25.481Z,16.00
2018-08-09T05:13:56.681Z,16.20
2018-08-09T05:14:27.872Z,16.57
2018-08-09T05:14:59.004Z,16.47
2018-08-09T05:15:30.166Z,17.50
2018-08-09T05:16:01.466Z,18.67
2018-08-09T05:16:32.557Z,17.37
2018-08-09T05:17:03.756Z,17.23
2018-08-09T05:17:34.905Z,16.43
2018-08-09T05:18:06.045Z,18.40
2018-08-09T05:18:37.247Z,17.90
2018-08-09T05:19:08.415Z,17.10
2018-08-09T05:19:39.543Z,16.87
2018-08-09T05:20:10.704Z,16.87
2018-08-09T05:20:41.896Z,17.23
2018-08-09T05:21:13.080Z,16.97
2018-08-09T05:21:44.337Z,16.33
2018-08-09T05:22:15.502Z,17.20
2018-08-09T05:22:46.694Z,16.17
2018-08-09T05:23:17.815Z,17.47
2018-08-09T05:23:49.030Z,17.50
2018-08-09T05:24:20.152Z,17.73
2018-08-09T05:24:51.359Z,17.40
2018-08-09T05:25:22.583Z,17.87
2018-08-09T05:25:53.758Z,16.27
2018-08-09T05:26:25.045Z,15.63
2018-08-09T05:26:56.264Z,16.30
2018-08-09T05:27:27.410Z,17.23
2018-08-09T05:27:58.578Z,17.10
2018-08-09T05:28:29.720Z,16.67
2018-08-09T05:29:00.890Z,17.82
2018-08-09T05:29:32.089Z,18.32
2018-08-09T05:30:03.208Z,18.27
2018-08-09T05:30:34.369Z,17.43
2018-08-09T05:31:05.594Z,17.13
2018-08-09T05:31:36.763Z,17.98
2018-08-09T05:32:07.881Z,18.25
2018-08-09T05:32:39.000Z,18.70
2018-08-09T05:33:10.124Z,19.02
2018-08-09T05:33:41.317Z,17.25
2018-08-09T05:34:12.519Z,19.37
2018-08-09T05:34:43.692Z,18.50
2018-08-09T05:35:14.901Z,18.42
2018-08-09T05:35:46.090Z,18.82
2018-08-09T05:36:17.229Z,19.25
2018-08-09T05:36:48.477Z,18.00
2018-08-09T05:37:19.661Z,18.52
2018-08-09T05:37:50.911Z,19.50
2018-08-09T05:38:22.069Z,20.25
2018-08-09T05:38:53.249Z,18.15
2018-08-09T05:39:24.452Z,19.27
2018-08-09T05:39:55.579Z,19.48
2018-08-09T05:40:26.804Z,18.80
2018-08-09T05:40:57.931Z,16.67
2018-08-09T05:41:29.137Z,16.77
2018-08-09T05:42:00.285Z,18.15
2018-08-09T05:42:31.518Z,16.23
2018-08-09T05:43:02.692Z,16.77
2018-08-09T05:43:33.822Z,16.05
2018-08-09T05:44:05.004Z,15.25
2018-08-09T05:44:36.217Z,18.75
2018-08-09T05:45:07.477Z,20.72
2018-08-09T05:45:38.722Z,15.05
2018-08-09T05:46:09.918Z,15.23
2018-08-09T05:46:41.047Z,15.05
2018-08-09T05:47:12.184Z,15.83
2018-08-09T05:47:43.349Z,15.40
2018-08-09T05:48:14.473Z,15.13
2018-08-09T05:48:45.649Z,15.70
2018-08-09T05:49:16.836Z,15.55
2018-08-09T05:49:48.019Z,15.53
2018-08-09T05:50:19.191Z,14.63
2018-08-09T05:50:50.417Z,14.98
2018-08-09T05:51:21.547Z,14.25
2018-08-09T05:51:52.749Z,13.28
2018-08-09T05:52:23.964Z,14.90
2018-08-09T05:52:55.214Z,14.30
2018-08-09T05:53:26.564Z,14.80
2018-08-09T05:53:57.975Z,15.23
2018-08-09T05:54:29.182Z,16.37
2018-08-09T05:55:00.365Z,16.80
2018-08-09T05:55:31.541Z,15.90
2018-08-09T05:56:02.737Z,16.05
2018-08-09T05:56:33.892Z,15.55
2018-08-09T05:57:05.042Z,16.05
2018-08-09T05:57:36.191Z,14.70
2018-08-09T05:58:07.385Z,15.55
2018-08-09T05:58:38.567Z,16.27
2018-08-09T05:59:09.755Z,15.68
2018-08-09T05:59:40.902Z,15.78
2018-08-09T06:00:12.042Z,15.28
2018-08-09T06:00:43.257Z,15.15
2018-08-09T06:01:14.522Z,15.75
2018-08-09T06:01:45.715Z,15.53
2018-08-09T06:02:16.918Z,14.55
2018-08-09T06:02:48.115Z,14.18
2018-08-09T06:03:19.325Z,14.93
2018-08-09T06:03:50.459Z,14.98
2018-08-09T06:04:21.601Z,14.95
2018-08-09T06:04:52.823Z,14.83
2018-08-09T06:05:24.016Z,15.23
2018-08-09T06:05:55.137Z,15.83
2018-08-09T06:06:26.327Z,16.87
2018-08-09T06:06:57.508Z,15.90
2018-08-09T06:07:28.700Z,16.00
2018-08-09T06:07:59.864Z,15.25
2018-08-09T06:08:31.046Z,14.70
2018-08-09T06:09:02.189Z,14.93
2018-08-09T06:09:33.311Z,15.30
2018-08-09T06:10:04.454Z,16.62
2018-08-09T06:10:35.610Z,17.20
2018-08-09T06:11:06.784Z,16.27
2018-08-09T06:11:38.025Z,16.80
2018-08-09T06:12:09.184Z,15.75
2018-08-09T06:12:40.315Z,15.45
2018-08-09T06:13:11.451Z,15.30
2018-08-09T06:13:42.578Z,14.28
2018-08-09T06:14:13.711Z,15.55
2018-08-09T06:14:44.901Z,14.87
2018-08-09T06:15:16.147Z,14.98
2018-08-09T06:15:47.372Z,14.78
2018-08-09T06:16:18.671Z,14.75
2018-08-09T06:16:49.923Z,14.25
2018-08-09T06:17:21.104Z,17.65
2018-08-09T06:17:52.263Z,15.38
2018-08-09T06:18:23.432Z,14.38
2018-08-09T06:18:54.639Z,17.32
2018-08-09T06:19:25.769Z,13.98
2018-08-09T06:19:56.962Z,15.90
2018-08-09T06:20:28.153Z,14.43
2018-08-09T06:20:59.398Z,14.85
2018-08-09T06:21:30.596Z,14.80
2018-08-09T06:22:01.798Z,14.95
2018-08-09T06:22:32.925Z,15.50
2018-08-09T06:23:04.123Z,15.78
2018-08-09T06:23:35.313Z,15.63
2018-08-09T06:24:06.445Z,16.17
2018-08-09T06:24:37.573Z,16.00
2018-08-09T06:25:08.771Z,16.80
2018-08-09T06:25:39.924Z,16.32
2018-08-09T06:26:11.097Z,15.98
2018-08-09T06:26:42.384Z,16.15
2018-08-09T06:27:13.578Z,16.48
2018-08-09T06:27:44.756Z,17.17
2018-08-09T06:28:15.988Z,15.72
2018-08-09T06:28:47.263Z,15.40
2018-08-09T06:29:18.325Z,17.05
2018-08-09T06:29:49.579Z,17.07
2018-08-09T06:30:20.785Z,16.85
2018-08-09T06:30:52.021Z,16.27
2018-08-09T06:31:23.266Z,15.68
2018-08-09T06:31:54.399Z,16.52
2018-08-09T06:32:25.522Z,17.25
2018-08-09T06:32:56.788Z,16.00
2018-08-09T06:33:27.941Z,17.35
2018-08-09T06:33:59.098Z,17.90
2018-08-09T06:34:30.228Z,16.67
2018-08-09T06:35:01.360Z,16.50
2018-08-09T06:35:32.487Z,16.27
2018-08-09T06:36:03.760Z,16.82
2018-08-09T06:36:34.899Z,17.05
2018-08-09T06:37:06.023Z,15.32
2018-08-09T06:37:37.184Z,16.55
2018-08-09T06:38:08.486Z,15.72
2018-08-09T06:38:39.683Z,15.28
2018-08-09T06:39:10.892Z,15.55
2018-08-09T06:39:42.068Z,15.70
2018-08-09T06:40:13.190Z,16.42
2018-08-09T06:40:44.376Z,16.02
2018-08-09T06:41:15.569Z,16.62